Time;durP1;ratioP1;P1;durP2;ratioP2;P2;SDS_P1;SDS_P2;PMS_P1;PMS_P2;Temp;Humidity;BMP_temperature;BMP_pressure;BME280_temperature;BME280_humidity;BME280_pressure;Samples;Min_cycle;Max_cycle;Signal;HPM_P1;HPM_P2
2021/06/13 00:02:17;;;;;;;7.85;3.63;;;;;;;13.74;71.94;100365.24;128276;1095;22345;-78
2021/06/13 00:04:48;;;;;;;8.05;2.90;;;;;;;13.74;72.03;100375.86;128195;1095;24460;-77
2021/06/13 00:07:18;;;;;;;6.15;2.80;;;;;;;13.75;72.02;100378.31;128305;1095;22468;-77
2021/06/13 00:09:51;;;;;;;7.85;2.95;;;;;;;13.75;71.76;100380.97;128571;1095;24244;-78
2021/06/13 00:12:23;;;;;;;8.63;3.80;;;;;;;13.75;71.92;100374.84;128705;1095;24187;-79
2021/06/13 00:15:04;;;;;;;5.88;3.40;;;;;;;13.75;71.95;100380.97;128858;1095;22390;-81
2021/06/13 00:17:41;;;;;;;8.45;2.95;;;;;;;13.74;71.95;100381.98;128049;1098;22442;-79
2021/06/13 00:20:18;;;;;;;8.73;3.48;;;;;;;13.71;71.82;100382.36;127952;1098;24612;-77
2021/06/13 00:22:52;;;;;;;5.58;2.95;;;;;;;13.68;71.81;100384.57;128092;1098;22360;-78
2021/06/13 00:25:23;;;;;;;5.98;2.55;;;;;;;13.68;72.07;100384.57;127993;1098;22542;-78
2021/06/13 00:27:53;;;;;;;8.38;2.35;;;;;;;13.69;71.90;100386.20;128185;1098;22426;-78
2021/06/13 00:30:25;;;;;;;8.80;3.30;;;;;;;13.68;71.83;100381.91;128008;1098;22412;-78
2021/06/13 00:32:55;;;;;;;5.73;3.07;;;;;;;13.68;71.96;100387.23;128039;1098;22893;-77
2021/06/13 00:35:27;;;;;;;5.80;2.80;;;;;;;13.66;71.96;100382.09;128036;1095;22343;-77
2021/06/13 00:38:02;;;;;;;5.85;2.80;;;;;;;13.63;71.41;100385.14;128593;1092;25234;-77
2021/06/13 00:40:34;;;;;;;9.35;3.08;;;;;;;13.63;71.96;100382.48;128261;1095;22368;-78
2021/06/13 00:43:05;;;;;;;4.33;2.65;;;;;;;13.62;71.98;100381.64;128241;1095;22356;-77
2021/06/13 00:45:35;;;;;;;8.48;3.38;;;;;;;13.61;71.87;100381.84;128240;1095;22389;-78
2021/06/13 00:48:09;;;;;;;6.15;2.88;;;;;;;13.57;71.65;100378.73;128490;1095;22611;-78
2021/06/13 00:50:46;;;;;;;6.28;3.00;;;;;;;13.53;71.36;100376.63;128235;1095;22391;-78
2021/06/13 00:53:20;;;;;;;8.18;3.40;;;;;;;13.46;71.66;100381.85;128229;1095;22459;-78
2021/06/13 00:55:58;;;;;;;7.08;3.60;;;;;;;13.43;71.55;100371.64;128449;1095;22361;-76
2021/06/13 00:58:30;;;;;;;5.33;3.15;;;;;;;13.39;71.50;100372.99;128636;1092;22366;-79
2021/06/13 01:01:01;;;;;;;7.25;3.18;;;;;;;13.33;71.53;100368.45;128540;1092;22357;-79
2021/06/13 01:03:34;;;;;;;5.98;3.03;;;;;;;13.29;71.62;100373.28;128621;1092;22339;-78
2021/06/13 01:06:05;;;;;;;9.68;3.35;;;;;;;13.28;71.65;100374.30;128295;1095;22323;-77
2021/06/13 01:08:49;;;;;;;5.83;2.70;;;;;;;13.25;71.72;100379.97;128191;1095;22792;-77
2021/06/13 01:12:26;;;;;;;9.13;4.05;;;;;;;13.23;71.75;100378.47;128226;1095;22399;-79
2021/06/13 01:15:13;;;;;;;3.65;2.70;;;;;;;13.15;71.79;100377.56;128304;1093;22361;-77
2021/06/13 01:18:25;;;;;;;6.80;3.03;;;;;;;13.13;71.84;100378.77;128238;1095;22357;-79
2021/06/13 01:21:19;;;;;;;9.33;3.83;;;;;;;13.05;71.94;100371.71;127982;1098;22348;-78
2021/06/13 01:24:16;;;;;;;13.58;3.60;;;;;;;13.03;71.98;100370.25;127589;1098;22366;-78
2021/06/13 01:27:18;;;;;;;8.30;3.90;;;;;;;13.02;72.06;100376.56;127503;1101;22398;-79
2021/06/13 01:29:50;;;;;;;9.90;3.03;;;;;;;13.02;72.48;100372.08;126982;1105;22510;-78
2021/06/13 01:32:29;;;;;;;9.28;3.33;;;;;;;13.03;72.24;100376.39;127043;1105;22400;-77
2021/06/13 01:35:06;;;;;;;8.70;3.45;;;;;;;13.00;71.94;100371.45;127092;1105;22414;-77
2021/06/13 01:37:43;;;;;;;8.18;2.95;;;;;;;12.98;72.53;100376.11;127057;1105;22467;-77
2021/06/13 01:40:15;;;;;;;7.28;3.08;;;;;;;12.97;72.54;100368.34;127049;1105;22940;-77
2021/06/13 01:42:53;;;;;;;8.10;3.20;;;;;;;12.94;72.73;100374.83;127307;1105;22894;-78
2021/06/13 01:45:38;;;;;;;4.88;3.13;;;;;;;12.94;72.49;100377.48;127218;1105;22400;-77
2021/06/13 01:48:12;;;;;;;8.68;3.30;;;;;;;12.92;72.79;100382.95;127133;1105;22382;-77
2021/06/13 01:50:44;;;;;;;10.10;3.68;;;;;;;12.89;72.73;100378.02;127101;1104;22657;-77
2021/06/13 01:53:16;;;;;;;;;;;;;;;12.85;72.56;100379.39;127893;1105;22349;-77
2021/06/13 01:55:51;;;;;;;8.90;3.73;;;;;;;12.81;73.09;100383.41;127095;1105;21277;-77
2021/06/13 01:58:25;;;;;;;10.77;3.93;;;;;;;12.82;73.28;100382.40;127257;1101;22440;-77
2021/06/13 02:01:20;;;;;;;5.73;3.23;;;;;;;12.82;73.19;100384.23;127417;1101;22398;-77
2021/06/13 02:03:54;;;;;;;9.90;3.80;;;;;;;12.84;73.13;100384.89;127695;1098;23792;-78
2021/06/13 02:07:03;;;;;;;7.93;3.73;;;;;;;12.85;73.58;100394.48;128174;1094;22622;-79
2021/06/13 02:09:36;;;;;;;9.28;3.90;;;;;;;12.88;73.49;100396.77;128244;1095;22378;-80
2021/06/13 02:12:10;;;;;;;7.53;3.08;;;;;;;12.88;73.62;100396.77;128307;1095;23389;-78
2021/06/13 02:14:49;;;;;;;8.73;3.50;;;;;;;12.87;73.63;100395.95;128173;1095;22482;-78
2021/06/13 02:17:25;;;;;;;6.93;3.13;;;;;;;12.85;73.44;100394.48;128249;1095;22345;-77
2021/06/13 02:20:03;;;;;;;6.38;3.50;;;;;;;12.85;73.59;100395.30;128747;1092;24166;-79
2021/06/13 02:22:39;;;;;;;8.68;3.93;;;;;;;12.84;73.74;100391.01;128860;1092;22359;-78
2021/06/13 02:25:11;;;;;;;6.55;4.18;;;;;;;12.86;73.67;100396.11;128544;1092;22340;-78
2021/06/13 02:27:43;;;;;;;12.63;4.05;;;;;;;12.87;73.79;100403.91;128361;1092;22345;-78
2021/06/13 02:30:19;;;;;;;11.80;4.13;;;;;;;12.86;73.87;100406.72;128279;1092;22343;-77
2021/06/13 02:32:50;;;;;;;11.05;4.55;;;;;;;12.85;73.86;100405.08;128683;1092;22438;-77
2021/06/13 02:35:21;;;;;;;6.17;3.57;;;;;;;12.81;73.88;100404.63;128632;1092;22353;-78
2021/06/13 02:37:57;;;;;;;7.07;3.23;;;;;;;12.78;73.94;100412.12;128603;1092;22337;-77
2021/06/13 02:40:30;;;;;;;9.28;3.80;;;;;;;12.78;74.09;100423.54;128587;1092;22407;-77
2021/06/13 02:43:01;;;;;;;8.93;3.98;;;;;;;12.81;74.38;100417.88;128635;1092;22360;-77
2021/06/13 02:45:35;;;;;;;7.60;3.70;;;;;;;12.82;74.06;100424.00;128570;1092;22358;-78
2021/06/13 02:48:06;;;;;;;11.48;3.43;;;;;;;12.80;73.99;100418.07;128584;1092;22379;-77
2021/06/13 02:50:37;;;;;;;11.58;3.35;;;;;;;12.80;74.34;100426.02;128272;1095;22335;-78
2021/06/13 02:53:42;;;;;;;7.85;4.28;;;;;;;12.80;74.14;100431.33;128307;1095;22366;-78
2021/06/13 02:56:47;;;;;;;11.13;4.00;;;;;;;12.78;74.33;100443.92;128065;1097;23415;-77
2021/06/13 02:59:34;;;;;;;9.65;3.60;;;;;;;12.77;74.31;100442.29;128136;1098;22371;-77
2021/06/13 03:02:09;;;;;;;8.50;3.65;;;;;;;12.75;74.32;100439.80;128488;1098;24543;-79
2021/06/13 03:04:45;;;;;;;8.98;3.83;;;;;;;12.76;74.20;100452.04;128000;1098;24527;-80
2021/06/13 03:07:21;;;;;;;8.63;3.78;;;;;;;12.79;74.32;100451.69;128055;1098;24554;-78
2021/06/13 03:09:52;;;;;;;6.30;3.18;;;;;;;12.81;74.06;100449.69;127930;1098;22399;-79
2021/06/13 03:12:26;;;;;;;7.38;3.13;;;;;;;12.82;74.15;100448.67;128024;1098;22870;-77
2021/06/13 03:14:59;;;;;;;8.70;3.63;;;;;;;12.85;74.12;100458.92;128148;1095;22417;-78
2021/06/13 03:17:36;;;;;;;6.23;3.10;;;;;;;12.89;74.23;100460.20;128618;1095;24212;-78
2021/06/13 03:20:12;;;;;;;7.75;4.15;;;;;;;12.90;74.02;100461.05;128318;1095;23849;-78
2021/06/13 03:22:44;;;;;;;9.50;4.58;;;;;;;12.92;73.84;100466.98;128289;1095;22458;-77
2021/06/13 03:25:17;;;;;;;8.78;5.40;;;;;;;12.91;73.64;100462.69;128310;1095;22828;-76
2021/06/13 03:27:47;;;;;;;10.45;4.78;;;;;;;12.91;73.57;100465.34;128515;1092;24193;-77
2021/06/13 03:30:25;;;;;;;12.10;5.38;;;;;;;12.93;73.67;100480.08;128632;1092;22349;-78
2021/06/13 03:33:00;;;;;;;11.43;5.93;;;;;;;12.95;73.45;100477.23;128723;1092;22365;-78
2021/06/13 03:35:32;;;;;;;13.28;7.10;;;;;;;12.97;73.52;100480.54;128820;1092;24227;-78
2021/06/13 03:38:03;;;;;;;11.45;7.08;;;;;;;13.01;73.23;100487.13;128376;1092;22328;-77
2021/06/13 03:40:33;;;;;;;9.73;6.38;;;;;;;13.03;73.20;100484.28;128697;1092;24142;-78
2021/06/13 03:43:05;;;;;;;13.33;8.55;;;;;;;13.06;73.08;100491.88;128716;1092;22350;-78
2021/06/13 03:45:36;;;;;;;11.85;6.88;;;;;;;13.10;72.82;100493.19;128692;1092;22348;-78
2021/06/13 03:48:07;;;;;;;8.83;5.88;;;;;;;13.14;72.91;100494.47;128428;1092;22798;-78
2021/06/13 03:50:37;;;;;;;8.75;5.38;;;;;;;13.15;72.70;100496.10;128440;1094;23750;-77
2021/06/13 03:53:07;;;;;;;9.38;4.65;;;;;;;13.18;72.47;100501.87;128372;1095;24508;-77
2021/06/13 03:55:37;;;;;;;9.33;4.55;;;;;;;13.19;72.36;100498.23;128333;1095;22370;-78
2021/06/13 03:58:09;;;;;;;10.88;4.18;;;;;;;13.22;72.13;100507.63;128331;1095;22359;-78
2021/06/13 04:00:40;;;;;;;10.88;3.33;;;;;;;13.24;72.33;100507.47;128354;1095;22355;-78
2021/06/13 04:03:20;;;;;;;12.38;3.50;;;;;;;13.26;71.91;100518.73;128348;1095;22359;-78
2021/06/13 04:05:52;;;;;;;8.15;3.48;;;;;;;13.26;71.66;100527.55;128538;1095;22410;-79
2021/06/13 04:08:23;;;;;;;7.15;3.20;;;;;;;13.26;71.83;100519.59;128218;1095;23260;-79
2021/06/13 04:10:54;;;;;;;11.58;3.68;;;;;;;13.31;71.68;100524.34;128367;1095;22394;-79
2021/06/13 04:13:26;;;;;;;8.15;3.20;;;;;;;13.37;71.97;100523.62;128301;1095;22384;-77
2021/06/13 04:15:57;;;;;;;10.25;3.88;;;;;;;13.40;71.45;100528.56;128325;1095;22453;-78
2021/06/13 04:18:29;;;;;;;7.55;2.88;;;;;;;13.45;71.30;100531.48;128311;1095;22379;-79
2021/06/13 04:20:59;;;;;;;;;;;;;;;13.49;71.57;100532.75;128146;1098;22408;-79
2021/06/13 04:23:30;;;;;;;8.10;3.60;;;;;;;13.51;71.17;100533.41;128280;1098;21728;-77
2021/06/13 04:26:00;;;;;;;9.28;3.63;;;;;;;13.57;70.90;100540.64;128081;1095;22388;-77
2021/06/13 04:28:33;;;;;;;7.93;3.53;;;;;;;13.60;70.35;100532.32;128275;1095;24998;-79
2021/06/13 04:31:11;;;;;;;10.90;4.10;;;;;;;13.62;70.50;100530.29;128336;1093;22657;-78
2021/06/13 04:33:45;;;;;;;7.05;4.30;;;;;;;13.71;70.41;100533.69;128483;1095;24508;-78
2021/06/13 04:36:18;;;;;;;7.63;3.90;;;;;;;13.83;70.29;100542.02;128348;1095;24519;-79
2021/06/13 04:38:49;;;;;;;7.68;3.78;;;;;;;13.86;70.02;100544.28;128397;1092;22350;-78
2021/06/13 04:41:20;;;;;;;8.45;3.90;;;;;;;13.89;69.42;100549.23;128406;1095;22363;-77
2021/06/13 04:43:51;;;;;;;12.18;4.85;;;;;;;13.97;69.29;100550.98;128136;1098;24088;-78
2021/06/13 04:46:28;;;;;;;10.83;4.10;;;;;;;14.05;69.02;100564.97;128000;1101;22970;-78
2021/06/13 04:48:58;;;;;;;10.85;4.75;;;;;;;14.10;69.14;100559.94;127995;1101;22414;-78
2021/06/13 04:51:28;;;;;;;9.53;3.83;;;;;;;14.24;68.62;100552.13;127694;1101;22398;-78
2021/06/13 04:54:40;;;;;;;10.45;4.88;;;;;;;14.42;68.64;100557.84;127719;1101;23912;-78
2021/06/13 04:57:29;;;;;;;9.60;4.65;;;;;;;14.65;68.26;100562.20;127563;1101;22404;-78
2021/06/13 04:59:59;;;;;;;6.97;4.17;;;;;;;14.81;67.33;100564.62;127848;1099;22405;-78
2021/06/13 05:02:30;;;;;;;16.65;5.30;;;;;;;14.95;66.75;100565.55;128014;1098;22986;-79
2021/06/13 05:05:00;;;;;;;10.38;4.50;;;;;;;15.03;65.94;100565.44;128167;1095;22358;-79
2021/06/13 05:07:32;;;;;;;11.58;4.50;;;;;;;15.07;65.14;100580.00;128285;1094;24310;-78
2021/06/13 05:10:03;;;;;;;11.18;4.50;;;;;;;15.09;64.62;100577.95;128290;1095;22441;-78
2021/06/13 05:12:51;;;;;;;9.83;4.73;;;;;;;15.16;64.16;100581.52;128316;1095;24505;-78
2021/06/13 05:15:23;;;;;;;8.13;4.60;;;;;;;15.25;63.68;100579.52;128265;1095;22353;-78
2021/06/13 05:17:53;;;;;;;10.08;4.50;;;;;;;15.36;63.51;100575.50;128380;1095;22442;-79
2021/06/13 05:20:23;;;;;;;8.48;4.80;;;;;;;15.48;62.84;100581.95;128316;1095;22363;-79
2021/06/13 05:23:02;;;;;;;9.68;4.03;;;;;;;15.63;62.70;100588.00;128264;1095;22369;-78
2021/06/13 05:25:36;;;;;;;6.08;3.60;;;;;;;15.83;62.13;100592.64;128364;1095;24495;-80
2021/06/13 05:28:08;;;;;;;9.63;3.93;;;;;;;16.00;61.57;100593.98;128362;1095;22354;-79
2021/06/13 05:30:39;;;;;;;13.18;3.95;;;;;;;16.11;60.46;100598.74;128430;1095;22452;-79
2021/06/13 05:33:09;;;;;;;7.70;3.73;;;;;;;16.12;60.02;100599.56;128130;1098;22379;-78
2021/06/13 05:35:41;;;;;;;12.28;3.45;;;;;;;16.33;60.22;100612.80;128245;1095;25004;-78
2021/06/13 05:38:11;;;;;;;8.70;3.93;;;;;;;16.49;59.04;100606.27;128351;1098;22373;-77
2021/06/13 05:40:42;;;;;;;11.10;3.95;;;;;;;16.75;59.03;100610.08;128024;1099;22401;-80
2021/06/13 05:43:12;;;;;;;6.93;4.05;;;;;;;17.08;58.86;100613.61;127575;1101;22416;-79
2021/06/13 05:45:43;;;;;;;6.53;3.40;;;;;;;17.32;57.29;100614.84;127429;1105;22692;-80
2021/06/13 05:48:14;;;;;;;8.45;3.28;;;;;;;17.69;57.38;100628.59;127153;1105;22917;-80
2021/06/13 05:50:44;;;;;;;7.20;3.03;;;;;;;17.99;55.67;100630.83;127597;1101;22475;-79
2021/06/13 05:53:15;;;;;;;7.67;3.30;;;;;;;18.22;54.70;100622.33;127790;1101;22398;-79
2021/06/13 05:55:45;;;;;;;7.85;3.13;;;;;;;18.42;54.13;100619.58;128072;1101;22388;-79
2021/06/13 05:58:15;;;;;;;6.05;3.30;;;;;;;18.51;53.06;100624.47;128018;1098;22404;-79
2021/06/13 06:00:46;;;;;;;5.05;2.85;;;;;;;18.75;53.12;100622.11;128250;1095;22384;-79
2021/06/13 06:03:16;;;;;;;6.63;3.20;;;;;;;19.19;52.98;100628.41;128303;1092;22686;-80
2021/06/13 06:05:46;;;;;;;9.95;3.25;;;;;;;19.42;51.48;100625.95;128638;1092;22341;-79
2021/06/13 06:08:17;;;;;;;7.68;3.43;;;;;;;19.59;50.68;100636.11;128318;1095;22373;-78
2021/06/13 06:10:50;;;;;;;10.95;3.80;;;;;;;19.81;49.94;100639.25;128596;1095;22376;-78
2021/06/13 06:13:22;;;;;;;8.30;4.05;;;;;;;19.90;48.94;100645.97;128250;1095;24836;-79
2021/06/13 06:15:52;;;;;;;8.20;3.83;;;;;;;19.81;48.32;100636.56;128340;1095;22402;-78
2021/06/13 06:18:22;;;;;;;10.08;3.30;;;;;;;19.77;48.83;100649.59;128264;1095;22483;-79
2021/06/13 06:20:53;;;;;;;8.30;3.67;;;;;;;19.77;48.94;100643.42;128118;1098;22388;-79
2021/06/13 06:23:22;;;;;;;13.75;3.90;;;;;;;19.83;48.27;100645.22;128125;1098;26056;-77
2021/06/13 06:25:52;;;;;;;7.33;3.23;;;;;;;19.94;48.19;100663.24;128051;1098;22468;-78
2021/06/13 06:28:23;;;;;;;13.45;3.48;;;;;;;20.07;48.05;100648.88;128303;1098;22398;-78
2021/06/13 06:30:53;;;;;;;7.35;3.30;;;;;;;20.24;47.18;100654.47;128037;1098;22377;-78
2021/06/13 06:33:30;;;;;;;8.73;4.13;;;;;;;20.52;47.53;100657.44;128116;1098;22421;-77
2021/06/13 06:36:00;;;;;;;9.85;3.28;;;;;;;20.60;46.52;100654.46;128041;1098;22561;-79
2021/06/13 06:38:30;;;;;;;6.10;3.20;;;;;;;20.87;46.69;100656.78;128044;1095;22366;-79
2021/06/13 06:41:00;;;;;;;7.17;3.50;;;;;;;20.97;45.38;100666.98;128265;1095;22346;-78
2021/06/13 06:43:30;;;;;;;7.78;3.20;;;;;;;20.86;45.00;100660.53;128271;1095;22347;-79
2021/06/13 06:46:00;;;;;;;7.10;3.53;;;;;;;20.65;44.86;100664.51;127992;1098;23196;-78
2021/06/13 06:48:30;;;;;;;8.95;3.68;;;;;;;20.58;45.40;100667.28;128083;1098;22372;-78
2021/06/13 06:50:59;;;;;;;10.13;4.03;;;;;;;20.69;45.32;100665.69;128032;1095;22436;-78
2021/06/13 06:53:29;;;;;;;9.35;3.35;;;;;;;20.75;44.80;100677.39;128293;1095;22378;-79
2021/06/13 06:55:59;;;;;;;7.33;3.33;;;;;;;20.60;44.45;100672.44;128277;1095;22369;-79
2021/06/13 06:58:30;;;;;;;11.00;4.20;;;;;;;20.25;44.46;100672.19;128314;1095;22336;-79
2021/06/13 07:01:00;;;;;;;8.85;3.95;;;;;;;19.81;44.69;100669.55;128273;1095;23121;-78
2021/06/13 07:03:30;;;;;;;8.73;3.55;;;;;;;19.42;45.70;100678.71;128309;1092;22356;-82
2021/06/13 07:06:01;;;;;;;8.45;3.23;;;;;;;19.26;46.00;100688.13;129004;1092;24676;-78
2021/06/13 07:08:31;;;;;;;10.40;3.73;;;;;;;19.09;46.20;100687.80;128846;1092;22377;-78
2021/06/13 07:11:00;;;;;;;7.33;3.93;;;;;;;18.87;46.42;100684.64;128664;1092;22314;-77
2021/06/13 07:13:32;;;;;;;10.18;3.28;;;;;;;18.50;46.83;100692.39;128655;1092;24147;-78
2021/06/13 07:16:02;;;;;;;10.48;3.90;;;;;;;18.52;47.81;100705.55;128950;1092;22359;-78
2021/06/13 07:18:32;;;;;;;13.45;3.50;;;;;;;18.70;47.88;100700.34;128600;1092;22358;-78
2021/06/13 07:21:03;;;;;;;8.45;4.00;;;;;;;18.94;47.30;100706.84;128709;1092;22355;-79
2021/06/13 07:23:36;;;;;;;8.33;3.75;;;;;;;19.12;46.80;100705.29;128663;1092;22337;-79
2021/06/13 07:26:06;;;;;;;7.73;3.68;;;;;;;19.32;46.02;100707.84;128873;1092;22357;-78
2021/06/13 07:28:36;;;;;;;6.43;2.93;;;;;;;19.34;45.58;100719.98;128635;1092;22455;-78
2021/06/13 07:31:08;;;;;;;7.68;3.05;;;;;;;19.26;45.13;100714.91;128712;1092;22334;-79
2021/06/13 07:33:40;;;;;;;9.80;3.13;;;;;;;19.13;45.31;100710.45;128577;1092;24237;-78
2021/06/13 07:36:13;;;;;;;10.20;3.08;;;;;;;18.92;45.41;100718.78;128599;1092;22337;-79
2021/06/13 07:38:43;;;;;;;9.10;2.85;;;;;;;18.68;46.37;100714.95;128581;1092;22388;-79
2021/06/13 07:41:13;;;;;;;9.70;3.70;;;;;;;18.60;46.41;100716.02;128646;1092;25005;-80
2021/06/13 07:43:43;;;;;;;7.70;2.73;;;;;;;18.59;47.29;100717.03;128848;1092;22330;-77
2021/06/13 07:46:13;;;;;;;9.60;3.58;;;;;;;18.89;47.44;100728.06;128253;1095;22396;-78
2021/06/13 07:48:45;;;;;;;11.15;4.03;;;;;;;19.09;46.66;100719.92;128284;1095;25020;-78
2021/06/13 07:51:15;;;;;;;11.15;4.48;;;;;;;18.96;46.25;100720.84;128309;1095;23117;-78
2021/06/13 07:53:45;;;;;;;10.05;3.45;;;;;;;18.77;46.17;100727.11;128273;1095;22396;-79
2021/06/13 07:56:16;;;;;;;7.98;3.03;;;;;;;18.75;46.32;100723.80;128352;1095;24240;-79
2021/06/13 07:58:46;;;;;;;7.30;3.20;;;;;;;18.87;46.81;100729.33;128239;1095;22359;-78
2021/06/13 08:01:16;;;;;;;8.20;3.45;;;;;;;19.30;47.25;100732.18;128392;1095;22429;-78
2021/06/13 08:03:45;;;;;;;9.35;3.63;;;;;;;19.87;47.06;100732.20;128316;1092;22364;-79
2021/06/13 08:06:15;;;;;;;10.75;3.05;;;;;;;20.40;45.46;100737.05;128743;1092;22593;-78
2021/06/13 08:08:47;;;;;;;7.73;3.45;;;;;;;20.81;43.76;100722.13;128506;1095;22375;-78
2021/06/13 08:11:17;;;;;;;10.78;2.80;;;;;;;20.75;42.49;100731.09;128244;1095;22348;-79
2021/06/13 08:13:47;;;;;;;5.23;2.83;;;;;;;20.79;43.25;100733.11;128259;1095;22607;-79
2021/06/13 08:16:20;;;;;;;7.73;3.25;;;;;;;20.74;42.56;100732.95;128270;1095;22350;-78
2021/06/13 08:18:52;;;;;;;8.40;3.25;;;;;;;20.54;42.38;100754.66;128266;1095;24077;-79
2021/06/13 08:21:22;;;;;;;5.58;3.00;;;;;;;20.31;42.50;100757.97;128213;1095;24197;-78
2021/06/13 08:23:52;;;;;;;7.58;3.08;;;;;;;20.17;43.17;100749.23;128262;1095;22388;-78
2021/06/13 08:26:23;;;;;;;7.03;3.30;;;;;;;20.06;42.74;100754.48;128294;1092;22373;-78
2021/06/13 08:28:57;;;;;;;6.45;3.10;;;;;;;19.97;43.99;100751.28;128682;1092;22361;-78
2021/06/13 08:31:27;;;;;;;6.95;3.23;;;;;;;20.29;44.20;100756.55;128874;1092;22343;-81
2021/06/13 08:33:59;;;;;;;7.65;3.40;;;;;;;20.22;42.27;100759.30;128591;1095;22389;-82
2021/06/13 08:36:29;;;;;;;9.50;5.08;;;;;;;19.85;43.15;100763.75;128619;1095;22375;-81
2021/06/13 08:39:00;;;;;;;7.25;3.05;;;;;;;19.50;43.31;100769.56;128548;1095;24940;-81
2021/06/13 08:41:32;;;;;;;9.10;3.80;;;;;;;19.61;45.11;100766.17;128579;1095;22436;-81
2021/06/13 08:44:02;;;;;;;8.80;4.53;;;;;;;20.20;45.30;100762.21;128881;1094;24248;-81
2021/06/13 08:46:32;;;;;;;8.08;3.43;;;;;;;20.79;43.79;100769.86;128604;1095;22370;-81
2021/06/13 08:49:04;;;;;;;12.83;3.40;;;;;;;21.00;42.45;100764.03;128902;1092;22632;-81
2021/06/13 08:51:35;;;;;;;10.43;3.78;;;;;;;20.85;41.63;100777.02;128897;1095;22372;-80
2021/06/13 08:54:05;;;;;;;8.78;4.50;;;;;;;20.54;42.08;100786.87;128335;1095;23064;-80
2021/06/13 08:56:35;;;;;;;10.47;3.23;;;;;;;20.29;42.63;100778.82;128851;1095;22360;-82
2021/06/13 08:59:05;;;;;;;7.30;3.40;;;;;;;20.04;42.93;100775.36;128662;1095;22347;-80
2021/06/13 09:01:35;;;;;;;7.00;2.83;;;;;;;20.13;43.38;100790.96;128895;1095;22346;-81
2021/06/13 09:04:07;;;;;;;14.65;4.63;;;;;;;19.92;42.42;100785.97;128665;1095;22358;-80
2021/06/13 09:06:37;;;;;;;6.08;2.65;;;;;;;19.70;42.43;100790.89;128665;1095;22346;-80
2021/06/13 09:09:24;;;;;;;7.33;2.58;;;;;;;19.45;43.13;100780.91;128969;1092;22375;-79
2021/06/13 09:12:00;;;;;;;6.23;3.10;;;;;;;19.35;44.31;100793.95;128964;1095;22351;-82
2021/06/13 09:14:38;;;;;;;5.43;2.63;;;;;;;19.69;44.42;100783.88;128953;1092;22359;-80
2021/06/13 09:17:28;;;;;;;6.10;3.23;;;;;;;20.17;44.69;100797.52;128932;1092;22343;-81
2021/06/13 09:20:08;;;;;;;10.55;3.35;;;;;;;20.44;42.87;100794.58;128920;1092;22347;-80
2021/06/13 09:22:38;;;;;;;8.43;2.80;;;;;;;20.34;42.01;100796.95;129062;1092;23204;-81
2021/06/13 09:25:14;;;;;;;10.40;2.95;;;;;;;20.17;42.24;100794.84;128665;1095;22426;-81
2021/06/13 09:28:22;;;;;;;9.93;3.25;;;;;;;20.22;43.05;100794.16;128624;1095;24223;-81
2021/06/13 09:30:53;;;;;;;6.00;2.78;;;;;;;20.25;42.40;100796.41;128889;1095;22371;-80
2021/06/13 09:33:36;;;;;;;7.05;3.30;;;;;;;20.37;42.11;100805.38;128647;1094;22360;-81
2021/06/13 09:36:07;;;;;;;6.63;2.78;;;;;;;20.20;41.73;100807.81;128726;1095;24265;-81
2021/06/13 09:38:45;;;;;;;7.38;2.58;;;;;;;19.84;42.34;100813.88;128543;1095;24168;-82
2021/06/13 09:41:22;;;;;;;6.10;3.08;;;;;;;19.52;43.27;100808.48;128358;1098;22459;-80
2021/06/13 09:44:08;;;;;;;6.30;2.70;;;;;;;19.42;43.25;100809.98;128393;1098;22927;-81
2021/06/13 09:46:44;;;;;;;8.23;2.87;;;;;;;19.40;43.40;100804.86;128288;1098;22377;-76
2021/06/13 09:49:18;;;;;;;7.75;2.30;;;;;;;19.92;43.72;100805.55;128102;1098;22394;-77
2021/06/13 09:51:53;;;;;;;5.83;2.90;;;;;;;20.35;42.75;100810.14;128109;1098;25072;-77
2021/06/13 09:54:27;;;;;;;10.17;4.53;;;;;;;20.57;41.74;100807.08;128169;1098;22391;-76
2021/06/13 09:57:02;;;;;;;12.50;7.63;;;;;;;20.41;41.31;100819.17;128178;1095;24246;-77
2021/06/13 09:59:34;;;;;;;6.23;3.48;;;;;;;20.23;41.22;100817.29;128431;1095;25096;-77
2021/06/13 10:02:08;;;;;;;7.73;3.00;;;;;;;20.01;41.36;100818.70;128675;1092;22395;-78
2021/06/13 10:04:42;;;;;;;6.53;4.30;;;;;;;19.96;41.84;100816.69;128631;1095;23260;-78
2021/06/13 10:07:36;;;;;;;6.40;2.70;;;;;;;20.33;41.77;100814.92;128644;1095;22347;-77
2021/06/13 10:10:08;;;;;;;7.83;3.25;;;;;;;20.56;41.31;100806.27;128284;1095;22413;-77
2021/06/13 10:12:54;;;;;;;6.53;2.43;;;;;;;20.47;40.38;100810.24;128336;1095;22365;-77
2021/06/13 10:15:36;;;;;;;5.33;2.90;;;;;;;20.38;40.21;100822.30;128307;1095;22366;-77
2021/06/13 10:18:13;;;;;;;8.40;2.90;;;;;;;20.42;40.14;100818.13;128291;1095;22347;-78
2021/06/13 10:20:43;;;;;;;7.58;2.38;;;;;;;20.24;40.17;100823.47;128354;1095;24508;-77
2021/06/13 10:23:13;;;;;;;12.37;3.33;;;;;;;19.90;40.42;100834.46;128242;1095;22798;-76
2021/06/13 10:25:43;;;;;;;6.63;3.27;;;;;;;19.68;40.85;100833.16;128251;1095;23256;-77
2021/06/13 10:28:13;;;;;;;7.95;2.68;;;;;;;19.54;41.73;100828.89;128214;1095;22353;-76
2021/06/13 10:30:45;;;;;;;8.03;2.70;;;;;;;19.71;42.26;100825.51;128281;1095;22352;-80
2021/06/13 10:33:17;;;;;;;8.60;2.13;;;;;;;19.88;41.53;100820.44;128539;1095;22498;-78
2021/06/13 10:35:47;;;;;;;5.53;2.43;;;;;;;20.03;40.57;100828.19;128097;1098;22401;-78
2021/06/13 10:38:17;;;;;;;6.00;2.45;;;;;;;20.20;40.37;100839.19;128261;1098;22403;-77
2021/06/13 10:40:47;;;;;;;4.18;1.98;;;;;;;20.35;40.22;100828.10;128237;1098;22352;-78
2021/06/13 10:43:26;;;;;;;4.23;2.13;;;;;;;20.44;40.00;100832.97;127960;1098;24779;-76
2021/06/13 10:46:28;;;;;;;8.93;2.33;;;;;;;20.43;40.07;100831.34;128256;1098;22361;-79
2021/06/13 10:49:01;;;;;;;7.53;2.60;;;;;;;20.39;40.27;100831.98;127996;1098;22385;-76
2021/06/13 10:51:44;;;;;;;8.70;3.08;;;;;;;20.22;40.05;100842.45;128072;1098;22359;-76
2021/06/13 10:55:02;;;;;;;6.28;1.90;;;;;;;19.99;40.25;100840.36;128115;1098;23121;-76
2021/06/13 10:57:44;;;;;;;7.30;2.63;;;;;;;19.91;40.78;100844.14;127979;1098;24253;-77
2021/06/13 11:00:40;;;;;;;5.55;2.28;;;;;;;19.89;40.63;100848.06;128015;1098;22388;-77
2021/06/13 11:03:15;;;;;;;8.45;3.33;;;;;;;19.81;40.93;100835.76;127650;1101;22387;-77
2021/06/13 11:05:47;;;;;;;5.30;2.85;;;;;;;19.90;41.13;100841.69;127599;1101;22552;-79
2021/06/13 11:08:17;;;;;;;;;;;;;;;19.91;41.13;100837.95;127951;1100;22391;-76
2021/06/13 11:10:47;;;;;;;8.10;2.78;;;;;;;19.91;41.27;100851.36;127961;1101;21267;-77
2021/06/13 11:13:28;;;;;;;6.78;2.50;;;;;;;19.94;41.00;100840.20;127980;1101;24547;-77
2021/06/13 11:16:00;;;;;;;7.93;2.65;;;;;;;20.02;40.78;100842.61;127685;1101;22428;-77
2021/06/13 11:18:31;;;;;;;8.13;3.08;;;;;;;20.01;40.34;100851.70;127574;1105;22422;-78
2021/06/13 11:21:20;;;;;;;5.03;2.15;;;;;;;20.00;40.72;100844.70;127495;1104;22386;-77
2021/06/13 11:23:52;;;;;;;7.25;2.33;;;;;;;19.98;40.60;100849.45;127150;1105;22442;-77
2021/06/13 11:26:36;;;;;;;5.07;2.50;;;;;;;19.94;40.28;100856.30;127443;1103;22430;-78
2021/06/13 11:29:09;;;;;;;6.40;2.58;;;;;;;19.75;40.49;100850.84;127610;1105;22413;-78
2021/06/13 11:31:45;;;;;;;10.80;2.25;;;;;;;19.68;41.23;100852.74;127563;1105;23193;-78
2021/06/13 11:34:16;;;;;;;7.43;3.10;;;;;;;19.69;41.36;100854.41;127604;1105;24247;-76
2021/06/13 11:36:49;;;;;;;7.80;2.58;;;;;;;19.68;41.51;100863.46;127611;1101;22378;-78
2021/06/13 11:39:21;;;;;;;8.30;2.90;;;;;;;19.77;41.49;100855.18;128020;1101;22388;-77
2021/06/13 11:42:07;;;;;;;6.45;2.23;;;;;;;19.81;41.46;100848.34;128161;1095;22369;-76
2021/06/13 11:44:41;;;;;;;8.40;2.75;;;;;;;19.83;41.18;100854.33;128361;1095;22362;-76
2021/06/13 11:47:27;;;;;;;5.43;2.45;;;;;;;19.81;41.58;100861.75;128378;1095;22382;-77
2021/06/13 11:49:58;;;;;;;7.83;2.80;;;;;;;19.78;41.65;100871.04;128317;1095;22372;-76
2021/06/13 11:52:48;;;;;;;;;;;;;;;19.79;41.88;100866.48;128885;1092;22839;-77